createdAt,value
2019-04-13T00:02:06.941Z,14.47
2019-04-13T00:04:46.848Z,14.33
2019-04-13T00:07:15.584Z,14.87
2019-04-13T00:09:44.322Z,15.13
2019-04-13T00:12:32.738Z,12.40
2019-04-13T00:15:00.526Z,12.03
2019-04-13T00:17:29.061Z,14.45
2019-04-13T00:19:57.443Z,13.90
2019-04-13T00:22:25.598Z,11.93
2019-04-13T00:24:53.986Z,12.63
2019-04-13T00:27:22.209Z,13.45
2019-04-13T00:29:50.860Z,11.15
2019-04-13T00:32:19.266Z,14.80
2019-04-13T00:34:47.403Z,14.15
2019-04-13T00:37:16.379Z,12.10
2019-04-13T00:39:45.276Z,13.58
2019-04-13T00:42:13.806Z,14.18
2019-04-13T00:44:42.228Z,13.78
2019-04-13T00:47:10.619Z,13.65
2019-04-13T00:49:39.300Z,13.80
2019-04-13T00:52:07.279Z,14.23
2019-04-13T00:54:35.268Z,12.15
2019-04-13T00:57:03.244Z,16.32
2019-04-13T00:59:31.137Z,13.88
2019-04-13T01:01:59.038Z,14.90
2019-04-13T01:04:26.937Z,16.37
2019-04-13T01:06:55.093Z,15.03
2019-04-13T01:09:23.217Z,16.00
2019-04-13T01:11:51.167Z,15.20
2019-04-13T01:14:19.139Z,12.25
2019-04-13T01:16:47.045Z,13.95
2019-04-13T01:19:15.400Z,14.95
2019-04-13T01:21:43.558Z,10.88
2019-04-13T01:24:12.210Z,13.78
2019-04-13T01:26:40.335Z,12.05
2019-04-13T01:29:08.823Z,12.53
2019-04-13T01:31:37.229Z,10.50
2019-04-13T01:34:05.247Z,12.37
2019-04-13T01:36:34.035Z,12.93
2019-04-13T01:39:04.434Z,14.78
2019-04-13T01:41:32.819Z,14.35
2019-04-13T01:44:01.681Z,11.35
2019-04-13T01:46:29.838Z,16.62
2019-04-13T01:48:58.237Z,11.08
2019-04-13T01:51:26.501Z,10.50
2019-04-13T01:53:55.483Z,13.18
2019-04-13T01:56:23.929Z,13.83
2019-04-13T01:58:52.575Z,9.35
2019-04-13T02:01:43.203Z,10.28
2019-04-13T02:04:35.414Z,12.43
2019-04-13T02:07:22.367Z,13.15
2019-04-13T02:10:03.576Z,11.35
2019-04-13T02:12:30.961Z,13.20
2019-04-13T02:14:59.695Z,10.20
2019-04-13T02:17:27.933Z,13.05
2019-04-13T02:19:56.413Z,12.63
2019-04-13T02:22:25.144Z,11.60
2019-04-13T02:24:53.899Z,9.40
2019-04-13T02:27:22.582Z,10.28
2019-04-13T02:29:50.709Z,18.35
2019-04-13T02:32:18.950Z,11.10
2019-04-13T02:34:47.204Z,12.95
2019-04-13T02:37:15.683Z,11.50
2019-04-13T02:39:44.055Z,11.80
2019-04-13T02:42:12.672Z,12.23
2019-04-13T02:44:41.207Z,10.72
2019-04-13T02:47:09.500Z,11.12
2019-04-13T02:49:37.388Z,12.68
2019-04-13T02:52:06.033Z,11.53
2019-04-13T02:54:34.253Z,10.00
2019-04-13T02:57:02.869Z,11.50
2019-04-13T02:59:31.195Z,11.28
2019-04-13T03:01:59.670Z,12.47
2019-04-13T03:04:28.319Z,12.53
2019-04-13T03:06:57.112Z,11.78
2019-04-13T03:09:25.745Z,12.28
2019-04-13T03:11:54.311Z,14.20
2019-04-13T03:14:22.641Z,12.80
2019-04-13T03:17:09.795Z,12.35
2019-04-13T03:19:41.405Z,14.07
2019-04-13T03:22:10.011Z,11.75
2019-04-13T03:24:38.413Z,13.48
2019-04-13T03:27:06.586Z,14.00
2019-04-13T03:29:34.733Z,13.40
2019-04-13T03:32:02.716Z,11.85
2019-04-13T03:34:31.297Z,12.28
2019-04-13T03:36:59.793Z,15.08
2019-04-13T03:39:28.311Z,13.10
2019-04-13T03:41:56.971Z,12.85
2019-04-13T03:44:25.454Z,13.55
2019-04-13T03:46:53.586Z,15.75
2019-04-13T03:49:21.834Z,13.50
2019-04-13T03:51:50.216Z,12.90
2019-04-13T03:54:18.113Z,14.90
2019-04-13T03:56:46.473Z,13.93
2019-04-13T03:59:14.383Z,15.08
2019-04-13T04:01:45.459Z,16.75
2019-04-13T04:04:13.049Z,14.25
2019-04-13T04:06:41.762Z,15.20
2019-04-13T04:09:10.539Z,16.50
2019-04-13T04:11:38.752Z,16.82
2019-04-13T04:14:07.399Z,16.10
2019-04-13T04:16:35.764Z,12.63
2019-04-13T04:19:04.240Z,12.45
2019-04-13T04:21:32.950Z,14.23
2019-04-13T04:24:01.350Z,15.53
2019-04-13T04:26:29.226Z,15.95
2019-04-13T04:28:57.470Z,16.48
2019-04-13T04:31:26.234Z,17.27
2019-04-13T04:33:54.626Z,16.40
2019-04-13T04:36:24.233Z,16.60
2019-04-13T04:38:52.709Z,15.20
2019-04-13T04:41:20.852Z,20.50
2019-04-13T04:43:49.264Z,16.30
2019-04-13T04:46:17.906Z,19.25
2019-04-13T04:48:46.509Z,17.57
2019-04-13T04:51:15.201Z,19.75
2019-04-13T04:53:43.837Z,21.20
2019-04-13T04:56:12.216Z,22.35
2019-04-13T04:58:40.450Z,18.25
2019-04-13T05:01:09.143Z,17.82
2019-04-13T05:03:37.745Z,19.73
2019-04-13T05:06:06.112Z,23.22
2019-04-13T05:08:34.249Z,19.80
2019-04-13T05:11:02.787Z,20.00
2019-04-13T05:13:31.617Z,19.30
2019-04-13T05:15:59.525Z,20.90
2019-04-13T05:18:28.189Z,20.02
2019-04-13T05:20:56.573Z,21.00
2019-04-13T05:23:25.586Z,20.62
2019-04-13T05:25:54.224Z,23.75
2019-04-13T05:28:22.875Z,18.60
2019-04-13T05:30:51.085Z,16.57
2019-04-13T05:33:19.704Z,17.15
2019-04-13T05:35:47.851Z,17.73
2019-04-13T05:38:17.110Z,19.98
2019-04-13T05:40:45.380Z,21.02
2019-04-13T05:43:13.859Z,20.17
2019-04-13T05:45:42.238Z,19.73
2019-04-13T05:48:10.623Z,18.65
2019-04-13T05:50:39.246Z,20.97
2019-04-13T05:53:07.870Z,21.65
2019-04-13T05:55:36.283Z,22.95
2019-04-13T05:58:04.843Z,18.80
2019-04-13T06:00:33.434Z,17.80
2019-04-13T06:03:01.549Z,18.75
2019-04-13T06:05:30.421Z,16.27
2019-04-13T06:07:58.618Z,18.42
2019-04-13T06:10:26.900Z,15.10
2019-04-13T06:12:55.621Z,15.72
2019-04-13T06:15:23.874Z,15.45
2019-04-13T06:17:53.010Z,15.53
2019-04-13T06:20:21.140Z,22.98
2019-04-13T06:22:52.114Z,14.93
2019-04-13T06:25:19.881Z,13.62
2019-04-13T06:27:48.503Z,13.20
2019-04-13T06:30:33.944Z,16.25
2019-04-13T06:33:08.149Z,15.05
2019-04-13T06:35:36.525Z,17.07
2019-04-13T06:38:05.023Z,15.40
2019-04-13T06:40:33.490Z,13.32
2019-04-13T06:43:01.656Z,15.10
2019-04-13T06:45:30.141Z,15.45
2019-04-13T06:48:00.478Z,14.58
2019-04-13T06:50:28.291Z,17.48
2019-04-13T06:52:56.433Z,17.10
2019-04-13T06:55:24.565Z,14.10
2019-04-13T06:57:53.497Z,18.27
2019-04-13T07:00:21.713Z,19.00
2019-04-13T07:02:49.861Z,19.25
2019-04-13T07:05:18.347Z,21.07
2019-04-13T07:08:02.919Z,22.52
2019-04-13T07:10:50.043Z,25.70
2019-04-13T07:13:27.097Z,23.57
2019-04-13T07:16:00.112Z,21.65
2019-04-13T07:18:28.252Z,17.55
2019-04-13T07:20:56.374Z,18.80
2019-04-13T07:23:25.389Z,18.45
2019-04-13T07:25:54.490Z,17.57
2019-04-13T07:28:22.647Z,17.35
2019-04-13T07:30:51.276Z,14.98
2019-04-13T07:33:20.283Z,18.02
2019-04-13T07:35:48.455Z,15.95
2019-04-13T07:38:17.340Z,18.65
2019-04-13T07:40:46.300Z,20.23
2019-04-13T07:43:15.421Z,24.10
2019-04-13T07:46:17.950Z,20.82
2019-04-13T07:48:56.828Z,22.70
2019-04-13T07:51:44.647Z,27.50
2019-04-13T07:54:13.507Z,30.70
2019-04-13T07:56:41.867Z,25.85
2019-04-13T07:59:11.078Z,20.10
2019-04-13T08:01:39.789Z,19.90
2019-04-13T08:04:08.226Z,19.82
2019-04-13T08:06:37.075Z,16.25
2019-04-13T08:09:06.394Z,21.05
2019-04-13T08:11:35.014Z,14.20
2019-04-13T08:14:08.571Z,13.48
2019-04-13T08:16:37.487Z,15.38
2019-04-13T08:19:13.210Z,15.35
2019-04-13T08:21:42.243Z,15.98
2019-04-13T08:24:10.371Z,15.38
2019-04-13T08:26:38.977Z,17.92
2019-04-13T08:29:07.478Z,15.83
2019-04-13T08:31:36.165Z,19.27
2019-04-13T08:34:04.321Z,14.95
2019-04-13T08:36:32.212Z,16.75
2019-04-13T08:39:00.081Z,17.23
2019-04-13T08:41:28.241Z,17.52
2019-04-13T08:43:56.254Z,17.60
2019-04-13T08:46:24.146Z,17.17
2019-04-13T08:48:52.814Z,14.98
2019-04-13T08:51:21.195Z,16.57
2019-04-13T08:53:49.319Z,15.95
2019-04-13T08:56:17.297Z,16.55
2019-04-13T08:58:45.383Z,14.05
2019-04-13T09:01:15.702Z,11.83
2019-04-13T09:03:43.815Z,11.43
2019-04-13T09:06:16.211Z,13.18
2019-04-13T09:08:42.098Z,12.43
2019-04-13T09:11:10.303Z,13.90
2019-04-13T09:13:38.202Z,11.65
2019-04-13T09:16:06.515Z,12.25
2019-04-13T09:19:04.070Z,12.60
2019-04-13T09:21:57.842Z,12.70
2019-04-13T09:24:24.757Z,12.05
2019-04-13T09:26:51.895Z,13.48
2019-04-13T09:29:18.865Z,12.40
2019-04-13T09:31:45.983Z,11.20
2019-04-13T09:34:28.320Z,14.85
2019-04-13T09:36:42.026Z,13.25
2019-04-13T09:39:09.245Z,12.78
2019-04-13T09:41:37.192Z,13.53
2019-04-13T09:44:11.140Z,11.03
2019-04-13T09:46:38.325Z,14.13
2019-04-13T09:49:05.210Z,12.60
2019-04-13T09:51:32.117Z,11.10
2019-04-13T09:53:59.127Z,13.32
2019-04-13T09:56:36.846Z,13.15
2019-04-13T09:58:54.967Z,12.63
2019-04-13T10:01:22.862Z,12.23
2019-04-13T10:03:50.767Z,11.40
2019-04-13T10:06:18.705Z,11.50
2019-04-13T10:08:55.792Z,12.60
2019-04-13T10:11:21.113Z,11.27
2019-04-13T10:13:59.965Z,11.75
2019-04-13T10:16:42.994Z,12.40
2019-04-13T10:19:11.383Z,10.60
2019-04-13T10:21:39.582Z,11.50
2019-04-13T10:24:07.471Z,11.90
2019-04-13T10:26:35.417Z,10.23
2019-04-13T10:29:03.319Z,13.50
2019-04-13T10:31:31.208Z,13.10
2019-04-13T10:33:59.925Z,11.75
2019-04-13T10:36:27.885Z,14.83
2019-04-13T10:39:07.718Z,12.40
2019-04-13T10:41:26.091Z,11.70
2019-04-13T10:43:54.088Z,15.23
2019-04-13T10:46:47.482Z,12.63
2019-04-13T10:49:35.280Z,10.53
2019-04-13T10:52:13.510Z,10.70
2019-04-13T10:54:41.900Z,10.50
2019-04-13T10:57:10.397Z,12.30
2019-04-13T10:59:38.623Z,11.47
2019-04-13T11:02:07.326Z,13.40
2019-04-13T11:04:35.710Z,12.23
2019-04-13T11:07:04.069Z,12.83
2019-04-13T11:09:32.465Z,13.73
2019-04-13T11:12:01.526Z,14.27
2019-04-13T11:14:29.658Z,10.87
2019-04-13T11:16:59.121Z,12.37
2019-04-13T11:19:27.637Z,13.25
2019-04-13T11:21:55.643Z,12.20
2019-04-13T11:24:23.531Z,14.87
2019-04-13T11:26:51.815Z,14.70
2019-04-13T11:29:20.636Z,13.25
2019-04-13T11:31:49.131Z,13.90
2019-04-13T11:34:17.525Z,11.60
2019-04-13T11:36:46.054Z,10.70
2019-04-13T11:39:14.255Z,13.40
2019-04-13T11:42:08.229Z,12.20
2019-04-13T11:44:47.951Z,15.15
2019-04-13T11:47:22.508Z,12.13
2019-04-13T11:49:50.729Z,11.63
2019-04-13T11:52:19.479Z,11.63
2019-04-13T11:54:48.113Z,11.40
2019-04-13T11:57:17.237Z,13.35
2019-04-13T11:59:45.621Z,10.08
2019-04-13T12:02:22.244Z,9.38
2019-04-13T12:05:17.553Z,10.70
2019-04-13T12:08:11.204Z,8.75
2019-04-13T12:10:58.358Z,9.80
2019-04-13T12:13:44.449Z,10.05
2019-04-13T12:16:29.631Z,9.20
2019-04-13T12:19:23.051Z,10.85
2019-04-13T12:21:56.741Z,8.40
2019-04-13T12:24:29.251Z,7.60
2019-04-13T12:26:57.801Z,7.20
2019-04-13T12:29:26.513Z,8.53
2019-04-13T12:31:55.261Z,11.63
2019-04-13T12:34:23.950Z,6.47
2019-04-13T12:36:52.748Z,7.42
2019-04-13T12:39:21.466Z,11.93
2019-04-13T12:41:56.322Z,8.78
2019-04-13T12:44:36.559Z,8.30
2019-04-13T12:46:54.187Z,10.50
2019-04-13T12:49:22.170Z,8.65
2019-04-13T12:51:50.167Z,9.48
2019-04-13T12:54:18.467Z,9.30
2019-04-13T12:56:46.452Z,8.03
2019-04-13T12:59:14.912Z,9.10
2019-04-13T13:01:57.881Z,8.98
2019-04-13T13:04:28.662Z,9.98
2019-04-13T13:06:56.826Z,7.70
2019-04-13T13:09:24.931Z,8.65
2019-04-13T13:11:52.916Z,7.28
2019-04-13T13:14:20.891Z,8.08
2019-04-13T13:16:48.989Z,8.33
2019-04-13T13:19:16.993Z,9.88
2019-04-13T13:21:45.317Z,7.50
2019-04-13T13:24:13.608Z,8.55
2019-04-13T13:26:49.246Z,7.83
2019-04-13T13:29:14.280Z,7.58
2019-04-13T13:31:45.711Z,7.70
2019-04-13T13:34:15.097Z,7.20
2019-04-13T13:36:43.630Z,8.13
2019-04-13T13:39:13.913Z,6.85
2019-04-13T13:41:41.501Z,7.35
2019-04-13T13:44:09.652Z,7.87
2019-04-13T13:46:37.869Z,7.10
2019-04-13T13:49:06.353Z,7.97
2019-04-13T13:51:34.995Z,7.63
2019-04-13T13:54:03.402Z,6.50
2019-04-13T13:56:31.379Z,11.57
2019-04-13T13:59:04.024Z,14.00
2019-04-13T14:01:46.985Z,14.13
2019-04-13T14:04:14.985Z,15.25
2019-04-13T14:06:42.865Z,13.08
2019-04-13T14:09:11.697Z,16.23
2019-04-13T14:11:40.392Z,13.78
2019-04-13T14:14:08.524Z,15.25
2019-04-13T14:16:37.263Z,17.95
2019-04-13T14:19:05.914Z,14.53
2019-04-13T14:21:38.098Z,15.15
2019-04-13T14:24:04.695Z,13.95
2019-04-13T14:26:33.271Z,18.25
2019-04-13T14:29:01.771Z,20.32
2019-04-13T14:31:32.942Z,18.07
2019-04-13T14:34:01.123Z,14.30
2019-04-13T14:36:29.548Z,14.10
2019-04-13T14:38:59.109Z,16.55
2019-04-13T14:41:27.989Z,16.45
2019-04-13T14:43:56.493Z,16.73
2019-04-13T14:46:25.305Z,18.35
2019-04-13T14:48:53.430Z,17.92
2019-04-13T14:51:22.229Z,15.60
2019-04-13T14:53:50.949Z,15.90
2019-04-13T14:56:19.328Z,14.68
2019-04-13T14:58:47.458Z,14.15
2019-04-13T15:01:16.109Z,17.60
2019-04-13T15:03:44.629Z,19.57
2019-04-13T15:06:14.734Z,17.82
2019-04-13T15:08:46.597Z,17.98
2019-04-13T15:11:17.277Z,19.25
2019-04-13T15:13:47.075Z,16.82
2019-04-13T15:16:21.505Z,15.78
2019-04-13T15:19:11.400Z,17.73
2019-04-13T15:21:35.106Z,16.75
2019-04-13T15:24:11.100Z,16.73
2019-04-13T15:26:39.406Z,13.83
2019-04-13T15:29:07.549Z,15.03
2019-04-13T15:31:38.346Z,17.45
2019-04-13T15:34:07.362Z,17.27
2019-04-13T15:36:35.801Z,13.40
2019-04-13T15:39:12.067Z,19.77
2019-04-13T15:41:52.846Z,15.78
2019-04-13T15:44:11.992Z,18.98
2019-04-13T15:46:41.533Z,18.70
2019-04-13T15:49:15.307Z,19.32
2019-04-13T15:51:44.666Z,23.47
2019-04-13T15:54:14.469Z,20.25
2019-04-13T15:56:44.095Z,19.40
2019-04-13T15:59:13.011Z,18.45
2019-04-13T16:01:43.066Z,19.60
2019-04-13T16:04:11.734Z,19.92
2019-04-13T16:06:40.005Z,21.55
2019-04-13T16:09:37.117Z,17.37
2019-04-13T16:12:10.175Z,19.45
2019-04-13T16:14:37.641Z,23.25
2019-04-13T16:17:10.922Z,20.45
2019-04-13T16:19:39.521Z,24.47
2019-04-13T16:22:09.174Z,24.50
2019-04-13T16:24:37.823Z,24.27
2019-04-13T16:27:05.729Z,25.10
2019-04-13T16:29:55.459Z,23.00
2019-04-13T16:32:32.403Z,21.70
2019-04-13T16:35:08.197Z,24.43
2019-04-13T16:37:44.143Z,27.02
2019-04-13T16:40:12.590Z,25.08
2019-04-13T16:42:41.081Z,25.92
2019-04-13T16:45:32.690Z,30.72
2019-04-13T16:48:09.823Z,28.42
2019-04-13T16:50:53.365Z,27.45
2019-04-13T16:53:41.250Z,27.82
2019-04-13T16:56:18.748Z,20.15
2019-04-13T16:58:59.431Z,25.95
2019-04-13T17:01:37.389Z,25.80
2019-04-13T17:04:27.962Z,23.83
2019-04-13T17:06:57.506Z,23.15
2019-04-13T17:09:31.346Z,19.85
2019-04-13T17:12:16.255Z,20.23
2019-04-13T17:14:31.264Z,18.90
2019-04-13T17:16:59.894Z,22.55
2019-04-13T17:19:44.853Z,22.93
2019-04-13T17:22:39.207Z,19.82
2019-04-13T17:25:32.885Z,24.65
2019-04-13T17:28:39.410Z,21.90
2019-04-13T17:31:20.109Z,24.45
2019-04-13T17:33:54.128Z,24.20
2019-04-13T17:36:22.711Z,24.45
2019-04-13T17:38:50.802Z,23.05
2019-04-13T17:41:31.876Z,25.72
2019-04-13T17:44:12.434Z,29.25
2019-04-13T17:47:03.694Z,25.92
2019-04-13T17:49:50.806Z,27.93
2019-04-13T17:52:44.348Z,28.98
2019-04-13T17:55:17.464Z,27.42
2019-04-13T17:57:54.656Z,28.20
2019-04-13T18:00:40.869Z,31.17
2019-04-13T18:03:47.159Z,28.32
2019-04-13T18:06:35.773Z,31.15
2019-04-13T18:09:25.059Z,30.27
2019-04-13T18:12:16.327Z,31.55
2019-04-13T18:14:54.998Z,33.67
2019-04-13T18:17:38.883Z,34.83
2019-04-13T18:20:07.215Z,33.50
2019-04-13T18:22:38.889Z,33.48
2019-04-13T18:25:05.727Z,31.93
2019-04-13T18:27:34.843Z,33.60
2019-04-13T18:30:13.923Z,32.17
2019-04-13T18:32:34.501Z,30.27
2019-04-13T18:35:02.824Z,28.20
2019-04-13T18:37:30.857Z,31.97
2019-04-13T18:39:59.474Z,35.25
2019-04-13T18:42:28.356Z,22.75
2019-04-13T18:44:57.273Z,22.95
2019-04-13T18:47:26.387Z,17.40
2019-04-13T18:49:55.314Z,18.70
2019-04-13T18:52:24.466Z,18.70
2019-04-13T18:54:53.108Z,16.55
2019-04-13T18:57:21.463Z,16.62
2019-04-13T18:59:49.470Z,21.90
2019-04-13T19:02:18.984Z,20.52
2019-04-13T19:04:50.427Z,21.37
2019-04-13T19:07:18.624Z,24.57
2019-04-13T19:09:46.891Z,23.22
2019-04-13T19:12:15.744Z,24.65
2019-04-13T19:14:44.205Z,27.07
2019-04-13T19:17:12.818Z,23.83
2019-04-13T19:19:41.197Z,26.42
2019-04-13T19:22:09.576Z,29.60
2019-04-13T19:24:38.106Z,24.70
2019-04-13T19:27:06.999Z,32.20
2019-04-13T19:29:35.542Z,36.30
2019-04-13T19:32:04.029Z,32.63
2019-04-13T19:34:32.854Z,31.05
2019-04-13T19:37:04.045Z,29.63
2019-04-13T19:39:31.209Z,32.73
2019-04-13T19:41:59.654Z,32.67
2019-04-13T19:44:28.323Z,29.60
2019-04-13T19:46:55.837Z,31.80
2019-04-13T19:49:23.737Z,30.25
2019-04-13T19:52:12.094Z,34.70
2019-04-13T19:54:39.723Z,31.93
2019-04-13T19:57:07.430Z,34.88
2019-04-13T19:59:35.153Z,33.48
2019-04-13T20:02:02.395Z,33.50
2019-04-13T20:04:29.626Z,33.58
2019-04-13T20:06:57.359Z,32.33
2019-04-13T20:09:25.101Z,32.20
2019-04-13T20:11:53.621Z,35.63
2019-04-13T20:14:24.652Z,36.13
2019-04-13T20:16:53.534Z,31.68
2019-04-13T20:19:22.382Z,39.73
2019-04-13T20:21:51.092Z,36.10
2019-04-13T20:24:19.505Z,41.45
2019-04-13T20:26:48.966Z,36.65
2019-04-13T20:29:17.112Z,42.27
2019-04-13T20:31:46.275Z,45.60
2019-04-13T20:34:16.575Z,54.20
2019-04-13T20:36:44.468Z,53.60
2019-04-13T20:39:13.503Z,45.05
2019-04-13T20:41:50.475Z,50.75
2019-04-13T20:44:14.843Z,50.17
2019-04-13T20:46:43.086Z,40.12
2019-04-13T20:49:11.349Z,44.30
2019-04-13T20:51:39.598Z,39.40
2019-04-13T20:54:07.759Z,43.52
2019-04-13T20:56:36.147Z,43.87
2019-04-13T20:59:04.400Z,44.03
2019-04-13T21:01:32.388Z,45.92
2019-04-13T21:04:00.750Z,43.48
2019-04-13T21:06:30.353Z,46.30
2019-04-13T21:08:59.131Z,48.95
2019-04-13T21:11:27.188Z,47.08
2019-04-13T21:14:05.631Z,42.67
2019-04-13T21:16:25.808Z,44.23
2019-04-13T21:18:55.745Z,50.60
2019-04-13T21:21:23.775Z,46.20
2019-04-13T21:23:51.864Z,45.60
2019-04-13T21:26:22.517Z,41.58
2019-04-13T21:28:50.029Z,42.10
2019-04-13T21:31:18.017Z,50.52
2019-04-13T21:33:45.909Z,46.35
2019-04-13T21:36:15.280Z,45.60
2019-04-13T21:38:43.790Z,53.87
2019-04-13T21:41:12.809Z,49.95
2019-04-13T21:43:41.779Z,48.35
2019-04-13T21:46:10.801Z,54.40
2019-04-13T21:48:39.906Z,52.95
2019-04-13T21:51:40.081Z,46.88
2019-04-13T21:54:14.676Z,51.88
2019-04-13T21:56:42.784Z,49.23
2019-04-13T21:59:11.042Z,48.10
2019-04-13T22:01:58.394Z,49.75
2019-04-13T22:04:28.293Z,49.38
2019-04-13T22:06:56.793Z,44.03
2019-04-13T22:09:25.992Z,52.95
2019-04-13T22:11:54.609Z,48.28
2019-04-13T22:14:35.300Z,50.85
2019-04-13T22:16:52.767Z,55.48
2019-04-13T22:19:22.131Z,48.00
2019-04-13T22:21:50.470Z,46.35
2019-04-13T22:24:18.751Z,48.13
2019-04-13T22:26:47.786Z,48.10
2019-04-13T22:29:22.211Z,45.50
2019-04-13T22:32:09.931Z,48.33
2019-04-13T22:34:42.428Z,51.08
2019-04-13T22:37:10.846Z,49.88
2019-04-13T22:39:39.916Z,46.83
2019-04-13T22:42:08.207Z,51.20
2019-04-13T22:44:45.574Z,52.15
2019-04-13T22:47:06.099Z,52.75
2019-04-13T22:49:54.573Z,52.13
2019-04-13T22:52:45.240Z,52.53
2019-04-13T22:55:20.743Z,51.30
2019-04-13T22:57:49.970Z,49.58
2019-04-13T23:00:26.211Z,52.45
2019-04-13T23:02:54.395Z,50.10
2019-04-13T23:05:24.165Z,51.58
2019-04-13T23:07:52.506Z,62.78
2019-04-13T23:10:20.571Z,63.42
2019-04-13T23:12:48.695Z,55.85
2019-04-13T23:15:24.347Z,51.42
2019-04-13T23:17:46.801Z,51.55
2019-04-13T23:20:14.883Z,52.40
2019-04-13T23:22:43.117Z,56.18
2019-04-13T23:25:11.857Z,52.10
2019-04-13T23:27:39.973Z,58.05
2019-04-13T23:30:09.358Z,52.95
2019-04-13T23:32:37.724Z,54.13
2019-04-13T23:35:06.383Z,56.92
2019-04-13T23:37:34.527Z,57.62
2019-04-13T23:40:05.140Z,53.00
2019-04-13T23:42:33.025Z,51.05
2019-04-13T23:45:10.807Z,65.85
2019-04-13T23:47:31.956Z,55.35
2019-04-13T23:50:01.569Z,61.28
2019-04-13T23:52:30.376Z,61.48
2019-04-13T23:54:58.675Z,55.63
2019-04-13T23:57:33.548Z,55.73
